sensor_id;sensor_type;location;lat;lon;timestamp;P1;durP1;ratioP1;P2;durP2;ratioP2
64907;SDS011;69061;52.236;5.188;2023-07-30T00:00:01;15.27;;;5.32;;
64907;SDS011;69061;52.236;5.188;2023-07-30T00:02:28;17.88;;;5.82;;
64907;SDS011;69061;52.236;5.188;2023-07-30T00:04:55;17.00;;;5.55;;
64907;SDS011;69061;52.236;5.188;2023-07-30T00:07:21;17.83;;;5.32;;
64907;SDS011;69061;52.236;5.188;2023-07-30T00:09:49;14.55;;;5.60;;
64907;SDS011;69061;52.236;5.188;2023-07-30T00:12:16;14.70;;;5.28;;
64907;SDS011;69061;52.236;5.188;2023-07-30T00:14:43;21.50;;;5.97;;
64907;SDS011;69061;52.236;5.188;2023-07-30T00:17:09;20.65;;;5.38;;
64907;SDS011;69061;52.236;5.188;2023-07-30T00:19:36;19.92;;;5.28;;
64907;SDS011;69061;52.236;5.188;2023-07-30T00:22:03;15.40;;;5.00;;
64907;SDS011;69061;52.236;5.188;2023-07-30T00:24:30;21.95;;;6.72;;
64907;SDS011;69061;52.236;5.188;2023-07-30T00:26:58;18.48;;;5.30;;
64907;SDS011;69061;52.236;5.188;2023-07-30T00:29:24;17.55;;;5.60;;
64907;SDS011;69061;52.236;5.188;2023-07-30T00:31:51;14.50;;;4.90;;
64907;SDS011;69061;52.236;5.188;2023-07-30T00:34:18;20.10;;;5.43;;
64907;SDS011;69061;52.236;5.188;2023-07-30T00:36:44;13.73;;;5.50;;
64907;SDS011;69061;52.236;5.188;2023-07-30T00:39:11;18.13;;;5.45;;
64907;SDS011;69061;52.236;5.188;2023-07-30T00:41:37;16.77;;;5.07;;
64907;SDS011;69061;52.236;5.188;2023-07-30T00:44:06;16.38;;;5.25;;
64907;SDS011;69061;52.236;5.188;2023-07-30T00:46:32;19.33;;;6.03;;
64907;SDS011;69061;52.236;5.188;2023-07-30T00:48:59;15.50;;;5.35;;
64907;SDS011;69061;52.236;5.188;2023-07-30T00:51:26;16.75;;;5.88;;
64907;SDS011;69061;52.236;5.188;2023-07-30T00:53:55;16.20;;;4.85;;
64907;SDS011;69061;52.236;5.188;2023-07-30T00:56:23;16.67;;;4.93;;
64907;SDS011;69061;52.236;5.188;2023-07-30T00:58:50;13.90;;;4.50;;
64907;SDS011;69061;52.236;5.188;2023-07-30T01:01:19;15.70;;;5.15;;
64907;SDS011;69061;52.236;5.188;2023-07-30T01:03:46;12.63;;;4.85;;
64907;SDS011;69061;52.236;5.188;2023-07-30T01:06:13;19.67;;;5.47;;
64907;SDS011;69061;52.236;5.188;2023-07-30T01:08:40;11.40;;;4.03;;
64907;SDS011;69061;52.236;5.188;2023-07-30T01:11:07;14.15;;;4.60;;
64907;SDS011;69061;52.236;5.188;2023-07-30T01:13:36;19.35;;;5.78;;
64907;SDS011;69061;52.236;5.188;2023-07-30T01:16:04;19.08;;;4.63;;
64907;SDS011;69061;52.236;5.188;2023-07-30T01:18:33;11.00;;;4.72;;
64907;SDS011;69061;52.236;5.188;2023-07-30T01:21:01;14.55;;;5.55;;
64907;SDS011;69061;52.236;5.188;2023-07-30T01:23:28;15.55;;;4.95;;
64907;SDS011;69061;52.236;5.188;2023-07-30T01:25:56;20.48;;;5.93;;
64907;SDS011;69061;52.236;5.188;2023-07-30T01:28:27;12.27;;;4.68;;
64907;SDS011;69061;52.236;5.188;2023-07-30T01:30:55;13.57;;;5.70;;
64907;SDS011;69061;52.236;5.188;2023-07-30T01:33:24;22.15;;;5.85;;
64907;SDS011;69061;52.236;5.188;2023-07-30T01:35:51;16.13;;;5.50;;
64907;SDS011;69061;52.236;5.188;2023-07-30T01:38:20;13.40;;;5.00;;
64907;SDS011;69061;52.236;5.188;2023-07-30T01:40:48;22.08;;;5.97;;
64907;SDS011;69061;52.236;5.188;2023-07-30T01:43:15;14.65;;;4.82;;
64907;SDS011;69061;52.236;5.188;2023-07-30T01:45:41;11.55;;;5.20;;
64907;SDS011;69061;52.236;5.188;2023-07-30T01:48:08;22.02;;;5.70;;
64907;SDS011;69061;52.236;5.188;2023-07-30T01:50:35;12.65;;;5.90;;
64907;SDS011;69061;52.236;5.188;2023-07-30T01:53:01;17.50;;;5.38;;
64907;SDS011;69061;52.236;5.188;2023-07-30T01:55:30;17.40;;;5.05;;
64907;SDS011;69061;52.236;5.188;2023-07-30T01:57:56;16.55;;;5.20;;
64907;SDS011;69061;52.236;5.188;2023-07-30T02:00:23;23.52;;;6.57;;
64907;SDS011;69061;52.236;5.188;2023-07-30T02:02:50;19.77;;;6.65;;
64907;SDS011;69061;52.236;5.188;2023-07-30T02:05:16;16.02;;;5.55;;
64907;SDS011;69061;52.236;5.188;2023-07-30T02:07:43;20.27;;;5.78;;
64907;SDS011;69061;52.236;5.188;2023-07-30T02:10:10;16.17;;;4.78;;
64907;SDS011;69061;52.236;5.188;2023-07-30T02:12:38;18.90;;;5.88;;
64907;SDS011;69061;52.236;5.188;2023-07-30T02:15:05;20.90;;;6.53;;
64907;SDS011;69061;52.236;5.188;2023-07-30T02:17:32;18.05;;;5.85;;
64907;SDS011;69061;52.236;5.188;2023-07-30T02:19:59;14.95;;;5.50;;
64907;SDS011;69061;52.236;5.188;2023-07-30T02:22:26;24.60;;;6.32;;
64907;SDS011;69061;52.236;5.188;2023-07-30T02:24:52;23.00;;;6.72;;
64907;SDS011;69061;52.236;5.188;2023-07-30T02:27:22;18.15;;;6.03;;
64907;SDS011;69061;52.236;5.188;2023-07-30T02:29:50;24.88;;;6.50;;
64907;SDS011;69061;52.236;5.188;2023-07-30T02:32:16;18.80;;;5.95;;
64907;SDS011;69061;52.236;5.188;2023-07-30T02:34:43;19.08;;;6.55;;
64907;SDS011;69061;52.236;5.188;2023-07-30T02:37:10;43.33;;;8.07;;
64907;SDS011;69061;52.236;5.188;2023-07-30T02:39:36;22.73;;;6.68;;
64907;SDS011;69061;52.236;5.188;2023-07-30T02:42:03;22.50;;;5.80;;
64907;SDS011;69061;52.236;5.188;2023-07-30T02:44:30;18.40;;;6.45;;
64907;SDS011;69061;52.236;5.188;2023-07-30T02:46:58;15.77;;;5.78;;
64907;SDS011;69061;52.236;5.188;2023-07-30T02:49:25;19.25;;;6.15;;
64907;SDS011;69061;52.236;5.188;2023-07-30T02:51:51;16.23;;;5.85;;
64907;SDS011;69061;52.236;5.188;2023-07-30T02:54:18;22.27;;;5.50;;
64907;SDS011;69061;52.236;5.188;2023-07-30T02:56:46;26.73;;;6.93;;
64907;SDS011;69061;52.236;5.188;2023-07-30T02:59:12;26.63;;;6.45;;
64907;SDS011;69061;52.236;5.188;2023-07-30T03:01:39;19.52;;;6.18;;
64907;SDS011;69061;52.236;5.188;2023-07-30T03:04:07;21.30;;;7.28;;
64907;SDS011;69061;52.236;5.188;2023-07-30T03:06:34;31.73;;;6.88;;
64907;SDS011;69061;52.236;5.188;2023-07-30T03:09:01;21.85;;;7.15;;
64907;SDS011;69061;52.236;5.188;2023-07-30T03:11:27;28.17;;;7.72;;
64907;SDS011;69061;52.236;5.188;2023-07-30T03:13:54;28.38;;;6.57;;
64907;SDS011;69061;52.236;5.188;2023-07-30T03:16:21;22.67;;;6.15;;
64907;SDS011;69061;52.236;5.188;2023-07-30T03:18:47;31.33;;;8.95;;
64907;SDS011;69061;52.236;5.188;2023-07-30T03:21:16;15.65;;;5.93;;
64907;SDS011;69061;52.236;5.188;2023-07-30T03:23:42;15.35;;;5.70;;
64907;SDS011;69061;52.236;5.188;2023-07-30T03:26:09;17.70;;;6.15;;
64907;SDS011;69061;52.236;5.188;2023-07-30T03:28:36;19.33;;;6.78;;
64907;SDS011;69061;52.236;5.188;2023-07-30T03:31:02;27.00;;;6.68;;
64907;SDS011;69061;52.236;5.188;2023-07-30T03:33:29;18.88;;;6.15;;
64907;SDS011;69061;52.236;5.188;2023-07-30T03:35:56;21.08;;;6.90;;
64907;SDS011;69061;52.236;5.188;2023-07-30T03:38:24;25.27;;;7.03;;
64907;SDS011;69061;52.236;5.188;2023-07-30T03:40:50;22.58;;;6.57;;
64907;SDS011;69061;52.236;5.188;2023-07-30T03:43:17;30.13;;;7.30;;
64907;SDS011;69061;52.236;5.188;2023-07-30T03:45:43;22.27;;;6.05;;
64907;SDS011;69061;52.236;5.188;2023-07-30T03:48:10;31.10;;;7.47;;
64907;SDS011;69061;52.236;5.188;2023-07-30T03:50:37;23.95;;;7.25;;
64907;SDS011;69061;52.236;5.188;2023-07-30T03:53:03;21.35;;;6.57;;
64907;SDS011;69061;52.236;5.188;2023-07-30T03:55:31;20.98;;;7.30;;
64907;SDS011;69061;52.236;5.188;2023-07-30T03:57:59;30.08;;;7.97;;
64907;SDS011;69061;52.236;5.188;2023-07-30T04:00:26;23.88;;;7.30;;
64907;SDS011;69061;52.236;5.188;2023-07-30T04:02:54;24.35;;;7.38;;
64907;SDS011;69061;52.236;5.188;2023-07-30T04:05:21;31.42;;;6.95;;
64907;SDS011;69061;52.236;5.188;2023-07-30T04:07:47;24.58;;;7.20;;
64907;SDS011;69061;52.236;5.188;2023-07-30T04:10:14;26.25;;;7.13;;
64907;SDS011;69061;52.236;5.188;2023-07-30T04:12:42;23.77;;;6.55;;
64907;SDS011;69061;52.236;5.188;2023-07-30T04:15:09;22.83;;;7.18;;
64907;SDS011;69061;52.236;5.188;2023-07-30T04:17:36;23.27;;;7.25;;
64907;SDS011;69061;52.236;5.188;2023-07-30T04:20:03;26.00;;;7.57;;
64907;SDS011;69061;52.236;5.188;2023-07-30T04:22:31;32.67;;;7.93;;
64907;SDS011;69061;52.236;5.188;2023-07-30T04:24:58;26.23;;;6.68;;
64907;SDS011;69061;52.236;5.188;2023-07-30T04:27:25;24.02;;;7.78;;
64907;SDS011;69061;52.236;5.188;2023-07-30T04:29:53;27.80;;;7.72;;
64907;SDS011;69061;52.236;5.188;2023-07-30T04:32:20;28.40;;;7.55;;
64907;SDS011;69061;52.236;5.188;2023-07-30T04:34:47;25.52;;;7.40;;
64907;SDS011;69061;52.236;5.188;2023-07-30T04:37:13;29.45;;;7.90;;
64907;SDS011;69061;52.236;5.188;2023-07-30T04:39:40;26.27;;;7.80;;
64907;SDS011;69061;52.236;5.188;2023-07-30T04:42:07;21.65;;;6.78;;
64907;SDS011;69061;52.236;5.188;2023-07-30T04:44:34;31.77;;;8.25;;
64907;SDS011;69061;52.236;5.188;2023-07-30T04:47:02;30.95;;;8.43;;
64907;SDS011;69061;52.236;5.188;2023-07-30T04:49:28;22.98;;;7.07;;
64907;SDS011;69061;52.236;5.188;2023-07-30T04:51:55;26.52;;;7.10;;
64907;SDS011;69061;52.236;5.188;2023-07-30T04:54:21;27.83;;;7.57;;
64907;SDS011;69061;52.236;5.188;2023-07-30T04:56:48;19.98;;;6.78;;
64907;SDS011;69061;52.236;5.188;2023-07-30T04:59:15;32.38;;;9.70;;
64907;SDS011;69061;52.236;5.188;2023-07-30T05:01:41;20.80;;;7.63;;
64907;SDS011;69061;52.236;5.188;2023-07-30T05:04:10;31.25;;;8.38;;
64907;SDS011;69061;52.236;5.188;2023-07-30T05:06:36;26.13;;;7.57;;
64907;SDS011;69061;52.236;5.188;2023-07-30T05:09:03;35.05;;;8.38;;
64907;SDS011;69061;52.236;5.188;2023-07-30T05:11:30;34.42;;;8.00;;
64907;SDS011;69061;52.236;5.188;2023-07-30T05:13:56;29.80;;;8.80;;
64907;SDS011;69061;52.236;5.188;2023-07-30T05:16:23;23.88;;;8.25;;
64907;SDS011;69061;52.236;5.188;2023-07-30T05:18:50;25.48;;;8.15;;
64907;SDS011;69061;52.236;5.188;2023-07-30T05:21:18;26.33;;;7.88;;
64907;SDS011;69061;52.236;5.188;2023-07-30T05:23:45;31.20;;;8.25;;
64907;SDS011;69061;52.236;5.188;2023-07-30T05:26:11;34.15;;;9.18;;
64907;SDS011;69061;52.236;5.188;2023-07-30T05:28:38;26.25;;;8.40;;
64907;SDS011;69061;52.236;5.188;2023-07-30T05:31:05;31.00;;;9.35;;
64907;SDS011;69061;52.236;5.188;2023-07-30T05:33:31;26.00;;;7.63;;
64907;SDS011;69061;52.236;5.188;2023-07-30T05:35:58;34.60;;;8.85;;
64907;SDS011;69061;52.236;5.188;2023-07-30T05:38:26;37.28;;;8.75;;
64907;SDS011;69061;52.236;5.188;2023-07-30T05:40:53;33.40;;;9.98;;
64907;SDS011;69061;52.236;5.188;2023-07-30T05:43:19;31.05;;;9.52;;
64907;SDS011;69061;52.236;5.188;2023-07-30T05:45:46;24.40;;;9.07;;
64907;SDS011;69061;52.236;5.188;2023-07-30T05:48:13;27.27;;;8.80;;
64907;SDS011;69061;52.236;5.188;2023-07-30T05:50:39;27.80;;;8.75;;
64907;SDS011;69061;52.236;5.188;2023-07-30T05:53:06;38.75;;;9.55;;
64907;SDS011;69061;52.236;5.188;2023-07-30T05:55:34;25.77;;;9.75;;
64907;SDS011;69061;52.236;5.188;2023-07-30T05:58:01;25.20;;;8.60;;
64907;SDS011;69061;52.236;5.188;2023-07-30T06:00:27;38.22;;;10.60;;
64907;SDS011;69061;52.236;5.188;2023-07-30T06:02:55;30.10;;;9.35;;
64907;SDS011;69061;52.236;5.188;2023-07-30T06:05:21;26.23;;;9.65;;
64907;SDS011;69061;52.236;5.188;2023-07-30T06:07:48;28.45;;;9.00;;
64907;SDS011;69061;52.236;5.188;2023-07-30T06:10:15;34.15;;;11.55;;
64907;SDS011;69061;52.236;5.188;2023-07-30T06:12:43;31.90;;;8.68;;
64907;SDS011;69061;52.236;5.188;2023-07-30T06:15:10;28.15;;;10.48;;
64907;SDS011;69061;52.236;5.188;2023-07-30T06:17:36;35.58;;;9.60;;
64907;SDS011;69061;52.236;5.188;2023-07-30T06:20:03;37.63;;;10.57;;
64907;SDS011;69061;52.236;5.188;2023-07-30T06:22:31;32.17;;;9.80;;
64907;SDS011;69061;52.236;5.188;2023-07-30T06:24:58;29.88;;;8.02;;
64907;SDS011;69061;52.236;5.188;2023-07-30T06:27:24;31.98;;;9.30;;
64907;SDS011;69061;52.236;5.188;2023-07-30T06:29:52;38.30;;;10.50;;
64907;SDS011;69061;52.236;5.188;2023-07-30T06:32:19;34.33;;;10.00;;
64907;SDS011;69061;52.236;5.188;2023-07-30T06:34:45;33.63;;;9.63;;
64907;SDS011;69061;52.236;5.188;2023-07-30T06:37:12;37.90;;;11.02;;
64907;SDS011;69061;52.236;5.188;2023-07-30T06:39:39;32.60;;;10.30;;
64907;SDS011;69061;52.236;5.188;2023-07-30T06:42:06;29.33;;;9.02;;
64907;SDS011;69061;52.236;5.188;2023-07-30T06:44:33;34.70;;;9.32;;
64907;SDS011;69061;52.236;5.188;2023-07-30T06:47:01;29.33;;;9.85;;
64907;SDS011;69061;52.236;5.188;2023-07-30T06:49:28;29.65;;;9.20;;
64907;SDS011;69061;52.236;5.188;2023-07-30T06:51:55;33.55;;;8.48;;
64907;SDS011;69061;52.236;5.188;2023-07-30T06:54:21;30.65;;;8.75;;
64907;SDS011;69061;52.236;5.188;2023-07-30T06:56:48;34.92;;;9.93;;
64907;SDS011;69061;52.236;5.188;2023-07-30T06:59:15;31.42;;;9.93;;
64907;SDS011;69061;52.236;5.188;2023-07-30T07:01:41;23.52;;;7.80;;
64907;SDS011;69061;52.236;5.188;2023-07-30T07:04:09;32.97;;;9.65;;
64907;SDS011;69061;52.236;5.188;2023-07-30T07:06:36;25.75;;;7.97;;
64907;SDS011;69061;52.236;5.188;2023-07-30T07:09:02;35.55;;;7.60;;
64907;SDS011;69061;52.236;5.188;2023-07-30T07:11:29;36.50;;;7.53;;
64907;SDS011;69061;52.236;5.188;2023-07-30T07:13:55;29.42;;;10.52;;
64907;SDS011;69061;52.236;5.188;2023-07-30T07:16:22;24.48;;;8.30;;
64907;SDS011;69061;52.236;5.188;2023-07-30T07:18:49;27.02;;;7.63;;
64907;SDS011;69061;52.236;5.188;2023-07-30T07:21:17;28.92;;;9.45;;
64907;SDS011;69061;52.236;5.188;2023-07-30T07:23:45;32.72;;;7.90;;
64907;SDS011;69061;52.236;5.188;2023-07-30T07:26:12;31.70;;;8.35;;
64907;SDS011;69061;52.236;5.188;2023-07-30T07:28:39;23.83;;;8.10;;
64907;SDS011;69061;52.236;5.188;2023-07-30T07:31:05;26.02;;;7.07;;
64907;SDS011;69061;52.236;5.188;2023-07-30T07:33:32;27.45;;;7.45;;
64907;SDS011;69061;52.236;5.188;2023-07-30T07:36:02;34.40;;;7.65;;
64907;SDS011;69061;52.236;5.188;2023-07-30T07:38:32;27.08;;;6.65;;
64907;SDS011;69061;52.236;5.188;2023-07-30T07:40:59;34.72;;;7.00;;
64907;SDS011;69061;52.236;5.188;2023-07-30T07:43:27;22.42;;;6.95;;
64907;SDS011;69061;52.236;5.188;2023-07-30T07:45:54;21.50;;;7.70;;
64907;SDS011;69061;52.236;5.188;2023-07-30T07:48:20;21.10;;;6.20;;
64907;SDS011;69061;52.236;5.188;2023-07-30T07:50:47;26.08;;;6.80;;
64907;SDS011;69061;52.236;5.188;2023-07-30T07:53:15;19.00;;;6.85;;
64907;SDS011;69061;52.236;5.188;2023-07-30T07:55:43;24.67;;;6.35;;
64907;SDS011;69061;52.236;5.188;2023-07-30T07:58:14;17.40;;;5.97;;
64907;SDS011;69061;52.236;5.188;2023-07-30T08:00:41;16.48;;;7.35;;
64907;SDS011;69061;52.236;5.188;2023-07-30T08:03:08;24.38;;;7.20;;
64907;SDS011;69061;52.236;5.188;2023-07-30T08:05:34;27.80;;;7.53;;
64907;SDS011;69061;52.236;5.188;2023-07-30T08:08:02;24.60;;;7.20;;
64907;SDS011;69061;52.236;5.188;2023-07-30T08:10:29;24.17;;;7.97;;
64907;SDS011;69061;52.236;5.188;2023-07-30T08:12:57;25.10;;;7.15;;
64907;SDS011;69061;52.236;5.188;2023-07-30T08:15:24;18.83;;;6.97;;
64907;SDS011;69061;52.236;5.188;2023-07-30T08:17:50;20.50;;;7.63;;
64907;SDS011;69061;52.236;5.188;2023-07-30T08:20:17;24.23;;;6.13;;
64907;SDS011;69061;52.236;5.188;2023-07-30T08:22:43;20.58;;;6.75;;
64907;SDS011;69061;52.236;5.188;2023-07-30T08:25:10;21.63;;;7.65;;
64907;SDS011;69061;52.236;5.188;2023-07-30T08:27:37;20.63;;;7.00;;
64907;SDS011;69061;52.236;5.188;2023-07-30T08:30:06;20.15;;;6.60;;
64907;SDS011;69061;52.236;5.188;2023-07-30T08:32:33;20.08;;;5.97;;
64907;SDS011;69061;52.236;5.188;2023-07-30T08:35:00;23.95;;;7.22;;
64907;SDS011;69061;52.236;5.188;2023-07-30T08:37:27;21.15;;;6.90;;
64907;SDS011;69061;52.236;5.188;2023-07-30T08:39:54;17.08;;;5.22;;
64907;SDS011;69061;52.236;5.188;2023-07-30T08:42:21;13.25;;;5.60;;
64907;SDS011;69061;52.236;5.188;2023-07-30T08:44:49;20.08;;;6.15;;
64907;SDS011;69061;52.236;5.188;2023-07-30T08:47:17;22.83;;;6.22;;
64907;SDS011;69061;52.236;5.188;2023-07-30T08:49:43;19.92;;;5.55;;
64907;SDS011;69061;52.236;5.188;2023-07-30T08:52:10;23.70;;;6.88;;
64907;SDS011;69061;52.236;5.188;2023-07-30T08:54:37;18.35;;;5.88;;
64907;SDS011;69061;52.236;5.188;2023-07-30T08:57:06;16.48;;;5.53;;
64907;SDS011;69061;52.236;5.188;2023-07-30T08:59:36;23.40;;;6.68;;
64907;SDS011;69061;52.236;5.188;2023-07-30T09:02:05;16.10;;;5.18;;
64907;SDS011;69061;52.236;5.188;2023-07-30T09:04:40;11.23;;;5.00;;
64907;SDS011;69061;52.236;5.188;2023-07-30T09:07:09;21.02;;;6.68;;
64907;SDS011;69061;52.236;5.188;2023-07-30T09:09:37;12.68;;;5.72;;
64907;SDS011;69061;52.236;5.188;2023-07-30T09:12:05;20.45;;;5.22;;
64907;SDS011;69061;52.236;5.188;2023-07-30T09:14:39;10.27;;;5.03;;
64907;SDS011;69061;52.236;5.188;2023-07-30T09:17:09;15.73;;;4.63;;
64907;SDS011;69061;52.236;5.188;2023-07-30T09:19:36;13.88;;;4.45;;
64907;SDS011;69061;52.236;5.188;2023-07-30T09:22:06;10.73;;;4.25;;
64907;SDS011;69061;52.236;5.188;2023-07-30T09:24:33;17.63;;;5.05;;
64907;SDS011;69061;52.236;5.188;2023-07-30T09:27:01;17.20;;;5.22;;
64907;SDS011;69061;52.236;5.188;2023-07-30T09:29:28;14.07;;;4.70;;
64907;SDS011;69061;52.236;5.188;2023-07-30T09:31:55;13.02;;;4.07;;
64907;SDS011;69061;52.236;5.188;2023-07-30T09:34:22;8.75;;;4.18;;
64907;SDS011;69061;52.236;5.188;2023-07-30T09:36:50;13.15;;;4.13;;
64907;SDS011;69061;52.236;5.188;2023-07-30T09:39:20;17.00;;;4.38;;
64907;SDS011;69061;52.236;5.188;2023-07-30T09:41:49;22.88;;;4.75;;
64907;SDS011;69061;52.236;5.188;2023-07-30T09:44:16;12.63;;;3.80;;
64907;SDS011;69061;52.236;5.188;2023-07-30T09:46:45;13.70;;;4.18;;
64907;SDS011;69061;52.236;5.188;2023-07-30T09:49:13;11.50;;;4.18;;
64907;SDS011;69061;52.236;5.188;2023-07-30T09:51:41;16.95;;;4.93;;
64907;SDS011;69061;52.236;5.188;2023-07-30T09:54:08;13.80;;;4.65;;
64907;SDS011;69061;52.236;5.188;2023-07-30T09:56:37;12.25;;;4.88;;
64907;SDS011;69061;52.236;5.188;2023-07-30T09:59:05;10.52;;;3.63;;
64907;SDS011;69061;52.236;5.188;2023-07-30T10:01:33;10.70;;;3.78;;
64907;SDS011;69061;52.236;5.188;2023-07-30T10:04:07;12.05;;;4.20;;
64907;SDS011;69061;52.236;5.188;2023-07-30T10:06:35;15.30;;;4.65;;
64907;SDS011;69061;52.236;5.188;2023-07-30T10:09:05;12.52;;;4.18;;
64907;SDS011;69061;52.236;5.188;2023-07-30T10:11:35;14.25;;;4.10;;
64907;SDS011;69061;52.236;5.188;2023-07-30T10:14:04;9.85;;;3.72;;
64907;SDS011;69061;52.236;5.188;2023-07-30T10:16:31;11.32;;;3.90;;
64907;SDS011;69061;52.236;5.188;2023-07-30T10:18:58;13.40;;;4.32;;
64907;SDS011;69061;52.236;5.188;2023-07-30T10:21:26;8.68;;;3.20;;
64907;SDS011;69061;52.236;5.188;2023-07-30T10:23:58;13.98;;;3.92;;
64907;SDS011;69061;52.236;5.188;2023-07-30T10:26:26;10.85;;;3.92;;
64907;SDS011;69061;52.236;5.188;2023-07-30T10:31:40;11.88;;;4.07;;
64907;SDS011;69061;52.236;5.188;2023-07-30T10:34:07;14.60;;;4.63;;
64907;SDS011;69061;52.236;5.188;2023-07-30T10:36:37;9.75;;;3.95;;
64907;SDS011;69061;52.236;5.188;2023-07-30T10:39:12;8.15;;;3.08;;
64907;SDS011;69061;52.236;5.188;2023-07-30T10:41:39;9.48;;;3.33;;
64907;SDS011;69061;52.236;5.188;2023-07-30T10:44:06;16.13;;;4.07;;
64907;SDS011;69061;52.236;5.188;2023-07-30T10:46:34;10.35;;;3.97;;
64907;SDS011;69061;52.236;5.188;2023-07-30T10:49:03;11.98;;;4.10;;
64907;SDS011;69061;52.236;5.188;2023-07-30T10:51:31;12.88;;;4.00;;
64907;SDS011;69061;52.236;5.188;2023-07-30T10:53:59;11.45;;;3.58;;
64907;SDS011;69061;52.236;5.188;2023-07-30T10:56:25;7.15;;;3.30;;
64907;SDS011;69061;52.236;5.188;2023-07-30T10:58:52;8.10;;;3.58;;
64907;SDS011;69061;52.236;5.188;2023-07-30T11:01:23;13.40;;;4.40;;
64907;SDS011;69061;52.236;5.188;2023-07-30T11:03:52;13.60;;;4.07;;
64907;SDS011;69061;52.236;5.188;2023-07-30T11:06:22;24.08;;;4.28;;
64907;SDS011;69061;52.236;5.188;2023-07-30T11:08:49;18.52;;;5.43;;
64907;SDS011;69061;52.236;5.188;2023-07-30T11:11:16;13.98;;;3.63;;
64907;SDS011;69061;52.236;5.188;2023-07-30T11:13:43;9.38;;;4.20;;
64907;SDS011;69061;52.236;5.188;2023-07-30T11:16:11;13.25;;;3.83;;
64907;SDS011;69061;52.236;5.188;2023-07-30T11:18:39;10.43;;;4.05;;
64907;SDS011;69061;52.236;5.188;2023-07-30T11:21:08;16.65;;;3.92;;
64907;SDS011;69061;52.236;5.188;2023-07-30T11:23:36;12.63;;;4.07;;
64907;SDS011;69061;52.236;5.188;2023-07-30T11:26:05;8.57;;;3.53;;
64907;SDS011;69061;52.236;5.188;2023-07-30T11:28:33;11.85;;;4.10;;
64907;SDS011;69061;52.236;5.188;2023-07-30T11:31:02;16.48;;;4.00;;
64907;SDS011;69061;52.236;5.188;2023-07-30T11:33:30;11.32;;;4.25;;
64907;SDS011;69061;52.236;5.188;2023-07-30T11:35:58;15.05;;;4.53;;
64907;SDS011;69061;52.236;5.188;2023-07-30T11:38:28;10.80;;;3.53;;
64907;SDS011;69061;52.236;5.188;2023-07-30T11:40:57;12.07;;;4.00;;
64907;SDS011;69061;52.236;5.188;2023-07-30T11:43:24;12.95;;;3.90;;
64907;SDS011;69061;52.236;5.188;2023-07-30T11:46:05;12.27;;;3.97;;
64907;SDS011;69061;52.236;5.188;2023-07-30T11:48:33;10.20;;;4.15;;
64907;SDS011;69061;52.236;5.188;2023-07-30T11:51:00;16.63;;;4.43;;
64907;SDS011;69061;52.236;5.188;2023-07-30T11:56:16;12.82;;;4.00;;
64907;SDS011;69061;52.236;5.188;2023-07-30T11:58:43;10.55;;;3.05;;
64907;SDS011;69061;52.236;5.188;2023-07-30T12:01:10;11.05;;;3.65;;
64907;SDS011;69061;52.236;5.188;2023-07-30T12:03:37;11.82;;;3.55;;
64907;SDS011;69061;52.236;5.188;2023-07-30T12:06:04;13.35;;;4.05;;
64907;SDS011;69061;52.236;5.188;2023-07-30T12:08:31;14.90;;;3.83;;
64907;SDS011;69061;52.236;5.188;2023-07-30T12:11:03;11.32;;;3.30;;
64907;SDS011;69061;52.236;5.188;2023-07-30T12:13:30;7.32;;;3.42;;
64907;SDS011;69061;52.236;5.188;2023-07-30T12:15:58;10.30;;;3.65;;
64907;SDS011;69061;52.236;5.188;2023-07-30T12:18:25;7.78;;;2.85;;
64907;SDS011;69061;52.236;5.188;2023-07-30T12:20:54;15.32;;;3.55;;
64907;SDS011;69061;52.236;5.188;2023-07-30T12:23:23;8.80;;;3.15;;
64907;SDS011;69061;52.236;5.188;2023-07-30T12:25:50;12.57;;;3.13;;
64907;SDS011;69061;52.236;5.188;2023-07-30T12:28:19;11.27;;;3.38;;
64907;SDS011;69061;52.236;5.188;2023-07-30T12:30:46;11.27;;;3.53;;
64907;SDS011;69061;52.236;5.188;2023-07-30T12:33:13;11.30;;;3.45;;
64907;SDS011;69061;52.236;5.188;2023-07-30T12:35:40;12.00;;;4.05;;
64907;SDS011;69061;52.236;5.188;2023-07-30T12:38:06;12.82;;;3.15;;
64907;SDS011;69061;52.236;5.188;2023-07-30T12:40:33;12.95;;;3.35;;
64907;SDS011;69061;52.236;5.188;2023-07-30T12:43:01;9.65;;;3.70;;
64907;SDS011;69061;52.236;5.188;2023-07-30T12:45:30;10.10;;;3.17;;
64907;SDS011;69061;52.236;5.188;2023-07-30T12:47:57;6.13;;;2.72;;
64907;SDS011;69061;52.236;5.188;2023-07-30T12:50:24;8.57;;;3.38;;
64907;SDS011;69061;52.236;5.188;2023-07-30T12:52:50;12.15;;;3.05;;
64907;SDS011;69061;52.236;5.188;2023-07-30T12:55:17;10.85;;;3.47;;
64907;SDS011;69061;52.236;5.188;2023-07-30T12:57:44;12.25;;;3.35;;
64907;SDS011;69061;52.236;5.188;2023-07-30T13:00:11;12.77;;;3.75;;
64907;SDS011;69061;52.236;5.188;2023-07-30T13:02:40;10.95;;;3.20;;
64907;SDS011;69061;52.236;5.188;2023-07-30T13:05:06;13.00;;;3.33;;
64907;SDS011;69061;52.236;5.188;2023-07-30T13:07:33;9.18;;;2.88;;
64907;SDS011;69061;52.236;5.188;2023-07-30T13:10:03;7.55;;;3.10;;
64907;SDS011;69061;52.236;5.188;2023-07-30T13:12:31;10.45;;;3.28;;
64907;SDS011;69061;52.236;5.188;2023-07-30T13:14:58;10.73;;;2.80;;
64907;SDS011;69061;52.236;5.188;2023-07-30T13:17:25;5.80;;;2.88;;
64907;SDS011;69061;52.236;5.188;2023-07-30T13:19:53;12.57;;;3.35;;
64907;SDS011;69061;52.236;5.188;2023-07-30T13:22:20;10.98;;;3.50;;
64907;SDS011;69061;52.236;5.188;2023-07-30T13:24:47;7.25;;;3.45;;
64907;SDS011;69061;52.236;5.188;2023-07-30T13:27:13;13.98;;;3.17;;
64907;SDS011;69061;52.236;5.188;2023-07-30T13:29:40;6.88;;;2.97;;
64907;SDS011;69061;52.236;5.188;2023-07-30T13:32:07;8.93;;;3.45;;
64907;SDS011;69061;52.236;5.188;2023-07-30T13:34:34;5.70;;;2.92;;
64907;SDS011;69061;52.236;5.188;2023-07-30T13:37:02;10.57;;;4.00;;
64907;SDS011;69061;52.236;5.188;2023-07-30T13:39:29;10.90;;;3.28;;
64907;SDS011;69061;52.236;5.188;2023-07-30T13:41:55;11.77;;;3.30;;
64907;SDS011;69061;52.236;5.188;2023-07-30T13:44:22;8.45;;;3.40;;
64907;SDS011;69061;52.236;5.188;2023-07-30T13:46:48;7.53;;;3.00;;
64907;SDS011;69061;52.236;5.188;2023-07-30T13:49:15;12.30;;;3.58;;
64907;SDS011;69061;52.236;5.188;2023-07-30T13:51:42;13.82;;;4.05;;
64907;SDS011;69061;52.236;5.188;2023-07-30T13:54:10;11.13;;;3.65;;
64907;SDS011;69061;52.236;5.188;2023-07-30T13:56:37;11.00;;;4.35;;
64907;SDS011;69061;52.236;5.188;2023-07-30T13:59:04;10.30;;;3.60;;
64907;SDS011;69061;52.236;5.188;2023-07-30T14:01:31;10.68;;;3.70;;
64907;SDS011;69061;52.236;5.188;2023-07-30T14:03:58;12.45;;;3.80;;
64907;SDS011;69061;52.236;5.188;2023-07-30T14:06:24;7.22;;;3.45;;
64907;SDS011;69061;52.236;5.188;2023-07-30T14:08:51;7.45;;;2.97;;
64907;SDS011;69061;52.236;5.188;2023-07-30T14:11:19;7.10;;;2.95;;
64907;SDS011;69061;52.236;5.188;2023-07-30T14:13:46;9.68;;;3.35;;
64907;SDS011;69061;52.236;5.188;2023-07-30T14:16:12;10.45;;;3.40;;
64907;SDS011;69061;52.236;5.188;2023-07-30T14:18:39;11.88;;;3.25;;
64907;SDS011;69061;52.236;5.188;2023-07-30T14:21:06;15.32;;;4.78;;
64907;SDS011;69061;52.236;5.188;2023-07-30T14:23:32;15.48;;;4.38;;
64907;SDS011;69061;52.236;5.188;2023-07-30T14:25:59;14.13;;;4.05;;
64907;SDS011;69061;52.236;5.188;2023-07-30T14:28:27;13.27;;;4.05;;
64907;SDS011;69061;52.236;5.188;2023-07-30T14:30:55;16.73;;;4.13;;
64907;SDS011;69061;52.236;5.188;2023-07-30T14:33:22;8.65;;;3.40;;
64907;SDS011;69061;52.236;5.188;2023-07-30T14:35:49;17.67;;;4.40;;
64907;SDS011;69061;52.236;5.188;2023-07-30T14:38:16;19.63;;;4.70;;
64907;SDS011;69061;52.236;5.188;2023-07-30T14:40:42;15.10;;;4.18;;